createdAt,value
2018-05-31T00:00:40.275Z,1005.24
2018-05-31T00:01:40.268Z,1005.26
2018-05-31T00:02:40.260Z,1005.28
2018-05-31T00:03:40.248Z,1005.23
2018-05-31T00:04:40.241Z,1005.3
2018-05-31T00:05:40.234Z,1005.33
2018-05-31T00:06:40.226Z,1005.33
2018-05-31T00:07:40.218Z,1005.34
2018-05-31T00:08:40.208Z,1005.34
2018-05-31T00:09:40.202Z,1005.31
2018-05-31T00:10:40.199Z,1005.37
2018-05-31T00:11:40.185Z,1005.36
2018-05-31T00:12:40.185Z,1005.33
2018-05-31T00:13:40.168Z,1005.33
2018-05-31T00:14:40.163Z,1005.38
2018-05-31T00:15:40.148Z,1005.39
2018-05-31T00:16:40.143Z,1005.34
2018-05-31T00:17:40.134Z,1005.34
2018-05-31T00:18:40.123Z,1005.34
2018-05-31T00:19:40.119Z,1005.31
2018-05-31T00:20:40.109Z,1005.29
2018-05-31T00:21:40.100Z,1005.3
2018-05-31T00:22:40.093Z,1005.28
2018-05-31T00:23:40.083Z,1005.31
2018-05-31T00:24:40.075Z,1005.34
2018-05-31T00:25:40.067Z,1005.3
2018-05-31T00:26:40.056Z,1005.28
2018-05-31T00:27:40.048Z,1005.3
2018-05-31T00:28:40.041Z,1005.24
2018-05-31T00:29:40.031Z,1005.26
2018-05-31T00:30:40.034Z,1005.25
2018-05-31T00:31:40.014Z,1005.24
2018-05-31T00:32:40.009Z,1005.21
2018-05-31T00:33:39.998Z,1005.18
2018-05-31T00:34:39.987Z,1005.24
2018-05-31T00:35:39.980Z,1005.24
2018-05-31T00:36:40.173Z,1005.24
2018-05-31T00:37:39.964Z,1005.23
2018-05-31T00:38:39.956Z,1005.27
2018-05-31T00:39:39.949Z,1005.25
2018-05-31T00:40:39.934Z,1005.28
2018-05-31T00:41:39.927Z,1005.3
2018-05-31T00:42:39.919Z,1005.28
2018-05-31T00:43:39.915Z,1005.33
2018-05-31T00:44:39.903Z,1005.33
2018-05-31T00:45:39.892Z,1005.32
2018-05-31T00:46:39.883Z,1005.3
2018-05-31T00:47:39.873Z,1005.29
2018-05-31T00:48:39.864Z,1005.29
2018-05-31T00:49:39.862Z,1005.33
2018-05-31T00:50:39.851Z,1005.31
2018-05-31T00:51:39.837Z,1005.33
2018-05-31T00:52:39.829Z,1005.36
2018-05-31T00:53:39.822Z,1005.34
2018-05-31T00:54:39.813Z,1005.35
2018-05-31T00:55:39.804Z,1005.32
2018-05-31T00:56:39.793Z,1005.33
2018-05-31T00:57:39.786Z,1005.33
2018-05-31T00:58:39.779Z,1005.33
2018-05-31T00:59:39.767Z,1005.34
2018-05-31T01:00:39.759Z,1005.33
2018-05-31T01:01:39.753Z,1005.38
2018-05-31T01:02:39.747Z,1005.35
2018-05-31T01:03:39.732Z,1005.38
2018-05-31T01:04:39.725Z,1005.39
2018-05-31T01:05:39.718Z,1005.4
2018-05-31T01:06:39.707Z,1005.41
2018-05-31T01:07:39.704Z,1005.43
2018-05-31T01:08:39.690Z,1005.42
2018-05-31T01:09:39.686Z,1005.43
2018-05-31T01:10:39.671Z,1005.43
2018-05-31T01:11:39.661Z,1005.41
2018-05-31T01:12:39.653Z,1005.39
2018-05-31T01:13:39.644Z,1005.36
2018-05-31T01:14:39.637Z,1005.37
2018-05-31T01:15:39.626Z,1005.36
2018-05-31T01:16:39.666Z,1005.37
2018-05-31T01:17:39.610Z,1005.38
2018-05-31T01:18:39.600Z,1005.39
2018-05-31T01:19:39.590Z,1005.38
2018-05-31T01:20:39.580Z,1005.41
2018-05-31T01:21:39.574Z,1005.46
2018-05-31T01:22:39.563Z,1005.51
2018-05-31T01:23:39.556Z,1005.52
2018-05-31T01:24:39.546Z,1005.51
2018-05-31T01:25:39.537Z,1005.53
2018-05-31T01:26:39.528Z,1005.54
2018-05-31T01:27:39.567Z,1005.52
2018-05-31T01:28:39.509Z,1005.55
2018-05-31T01:29:39.502Z,1005.56
2018-05-31T01:30:39.492Z,1005.58
2018-05-31T01:31:39.484Z,1005.56
2018-05-31T01:32:39.474Z,1005.54
2018-05-31T01:33:39.465Z,1005.55
2018-05-31T01:34:39.457Z,1005.58
2018-05-31T01:35:39.450Z,1005.51
2018-05-31T01:36:39.439Z,1005.6
2018-05-31T01:37:39.428Z,1005.51
2018-05-31T01:38:39.419Z,1005.5
2018-05-31T01:39:39.408Z,1005.49
2018-05-31T01:40:39.400Z,1005.44
2018-05-31T01:41:39.392Z,1005.46
2018-05-31T01:42:39.381Z,1005.45
2018-05-31T01:43:39.375Z,1005.47
2018-05-31T01:44:39.364Z,1005.49
2018-05-31T01:45:39.358Z,1005.48
2018-05-31T01:46:39.344Z,1005.46
2018-05-31T01:47:39.335Z,1005.51
2018-05-31T01:48:39.326Z,1005.52
2018-05-31T01:49:39.317Z,1005.49
2018-05-31T01:50:39.309Z,1005.45
2018-05-31T01:51:39.299Z,1005.45
2018-05-31T01:52:39.295Z,1005.43
2018-05-31T01:53:39.278Z,1005.39
2018-05-31T01:54:39.269Z,1005.39
2018-05-31T01:55:39.261Z,1005.39
2018-05-31T01:56:39.253Z,1005.37
2018-05-31T01:57:39.244Z,1005.39
2018-05-31T01:58:39.238Z,1005.41
2018-05-31T01:59:39.225Z,1005.39
2018-05-31T02:00:39.214Z,1005.43
2018-05-31T02:01:39.206Z,1005.37
2018-05-31T02:02:39.196Z,1005.4
2018-05-31T02:03:39.185Z,1005.4
2018-05-31T02:04:39.176Z,1005.41
2018-05-31T02:05:39.170Z,1005.39
2018-05-31T02:06:39.160Z,1005.37
2018-05-31T02:07:39.150Z,1005.35
2018-05-31T02:08:39.139Z,1005.32
2018-05-31T02:09:39.133Z,1005.34
2018-05-31T02:10:39.120Z,1005.3
2018-05-31T02:11:39.113Z,1005.29
2018-05-31T02:12:39.103Z,1005.24
2018-05-31T02:13:39.095Z,1005.28
2018-05-31T02:14:39.084Z,1005.25
2018-05-31T02:15:39.076Z,1005.22
2018-05-31T02:16:39.065Z,1005.19
2018-05-31T02:17:39.055Z,1005.22
2018-05-31T02:18:39.047Z,1005.2
2018-05-31T02:19:39.043Z,1005.2
2018-05-31T02:20:39.027Z,1005.2
2018-05-31T02:21:39.018Z,1005.22
2018-05-31T02:22:39.008Z,1005.23
2018-05-31T02:23:39.000Z,1005.22
2018-05-31T02:24:38.991Z,1005.22
2018-05-31T02:25:38.984Z,1005.23
2018-05-31T02:26:38.972Z,1005.23
2018-05-31T02:27:38.960Z,1005.21
2018-05-31T02:28:38.953Z,1005.25
2018-05-31T02:29:38.945Z,1005.19
2018-05-31T02:30:38.936Z,1005.23
2018-05-31T02:31:38.924Z,1005.18
2018-05-31T02:32:38.918Z,1005.2
2018-05-31T02:33:38.904Z,1005.26
2018-05-31T02:34:38.901Z,1005.21
2018-05-31T02:35:38.890Z,1005.22
2018-05-31T02:36:39.083Z,1005.17
2018-05-31T02:37:38.868Z,1005.21
2018-05-31T02:38:38.860Z,1005.2
2018-05-31T02:39:38.849Z,1005.19
2018-05-31T02:40:38.841Z,1005.18
2018-05-31T02:41:38.831Z,1005.2
2018-05-31T02:42:38.820Z,1005.18
2018-05-31T02:43:38.813Z,1005.21
2018-05-31T02:44:38.803Z,1005.22
2018-05-31T02:45:38.793Z,1005.22
2018-05-31T02:46:38.784Z,1005.23
2018-05-31T02:47:38.779Z,1005.24
2018-05-31T02:48:38.764Z,1005.27
2018-05-31T02:49:38.760Z,1005.3
2018-05-31T02:50:38.746Z,1005.29
2018-05-31T02:51:38.739Z,1005.29
2018-05-31T02:52:38.731Z,1005.29
2018-05-31T02:53:38.772Z,1005.3
2018-05-31T02:54:38.708Z,1005.29
2018-05-31T02:55:38.698Z,1005.26
2018-05-31T02:56:38.690Z,1005.25
2018-05-31T02:57:38.680Z,1005.25
2018-05-31T02:58:38.672Z,1005.23
2018-05-31T02:59:38.660Z,1005.25
2018-05-31T03:00:38.651Z,1005.28
2018-05-31T03:01:38.642Z,1005.28
2018-05-31T03:02:38.631Z,1005.3
2018-05-31T03:03:38.624Z,1005.27
2018-05-31T03:04:38.613Z,1005.22
2018-05-31T03:05:38.604Z,1005.21
2018-05-31T03:06:38.594Z,1005.24
2018-05-31T03:07:38.597Z,1005.23
2018-05-31T03:08:38.575Z,1005.21
2018-05-31T03:09:38.569Z,1005.21
2018-05-31T03:10:38.555Z,1005.24
2018-05-31T03:11:38.547Z,1005.24
2018-05-31T03:12:38.538Z,1005.22
2018-05-31T03:13:38.530Z,1005.29
2018-05-31T03:14:38.518Z,1005.31
2018-05-31T03:15:38.509Z,1005.3
2018-05-31T03:16:38.500Z,1005.32
2018-05-31T03:17:38.492Z,1005.34
2018-05-31T03:18:38.480Z,1005.33
2018-05-31T03:19:38.473Z,1005.29
2018-05-31T03:20:38.462Z,1005.24
2018-05-31T03:21:38.504Z,1005.18
2018-05-31T03:22:38.442Z,1005.2
2018-05-31T03:23:38.437Z,1005.21
2018-05-31T03:24:38.423Z,1005.18
2018-05-31T03:25:38.413Z,1005.26
2018-05-31T03:26:38.406Z,1005.28
2018-05-31T03:27:38.394Z,1005.32
2018-05-31T03:28:38.385Z,1005.31
2018-05-31T03:29:38.374Z,1005.33
2018-05-31T03:30:38.365Z,1005.34
2018-05-31T03:31:38.371Z,1005.3
2018-05-31T03:32:38.347Z,1005.28
2018-05-31T03:33:38.368Z,1005.32
2018-05-31T03:34:38.325Z,1005.31
2018-05-31T03:35:38.318Z,1005.3
2018-05-31T03:36:38.307Z,1005.32
2018-05-31T03:37:38.299Z,1005.34
2018-05-31T03:38:38.288Z,1005.3
2018-05-31T03:39:38.278Z,1005.31
2018-05-31T03:40:38.273Z,1005.31
2018-05-31T03:41:38.268Z,1005.32
2018-05-31T03:42:38.250Z,1005.33
2018-05-31T03:43:38.239Z,1005.37
2018-05-31T03:44:38.230Z,1005.37
2018-05-31T03:45:38.220Z,1005.32
2018-05-31T03:46:38.210Z,1005.34
2018-05-31T03:47:38.201Z,1005.33
2018-05-31T03:48:38.193Z,1005.34
2018-05-31T03:49:38.187Z,1005.31
2018-05-31T03:50:38.174Z,1005.33
2018-05-31T03:51:38.165Z,1005.31
2018-05-31T03:52:38.160Z,1005.3
2018-05-31T03:53:38.147Z,1005.31
2018-05-31T03:54:38.133Z,1005.28
2018-05-31T03:55:38.127Z,1005.31
2018-05-31T03:56:38.116Z,1005.37
2018-05-31T03:57:38.106Z,1005.36
2018-05-31T03:58:38.099Z,1005.38
2018-05-31T03:59:38.090Z,1005.39
2018-05-31T04:00:38.080Z,1005.39
2018-05-31T04:01:38.069Z,1005.41
2018-05-31T04:02:38.059Z,1005.38
2018-05-31T04:03:38.058Z,1005.39
2018-05-31T04:04:38.042Z,1005.35
2018-05-31T04:05:38.034Z,1005.4
2018-05-31T04:06:38.024Z,1005.39
2018-05-31T04:07:38.013Z,1005.4
2018-05-31T04:08:38.003Z,1005.37
2018-05-31T04:09:37.996Z,1005.37
2018-05-31T04:10:37.985Z,1005.35
2018-05-31T04:11:37.978Z,1005.35
2018-05-31T04:12:37.967Z,1005.35
2018-05-31T04:13:37.957Z,1005.32
2018-05-31T04:14:37.978Z,1005.31
2018-05-31T04:15:37.939Z,1005.32
2018-05-31T04:16:37.931Z,1005.34
2018-05-31T04:17:37.921Z,1005.35
2018-05-31T04:18:37.914Z,1005.32
2018-05-31T04:19:37.901Z,1005.37
2018-05-31T04:20:37.892Z,1005.35
2018-05-31T04:21:37.883Z,1005.32
2018-05-31T04:22:37.878Z,1005.33
2018-05-31T04:23:37.864Z,1005.32
2018-05-31T04:24:37.859Z,1005.34
2018-05-31T04:25:37.846Z,1005.31
2018-05-31T04:26:37.840Z,1005.3
2018-05-31T04:27:37.827Z,1005.29
2018-05-31T04:28:37.818Z,1005.27
2018-05-31T04:29:37.809Z,1005.34
2018-05-31T04:30:37.800Z,1005.3
2018-05-31T04:31:37.791Z,1005.32
2018-05-31T04:32:37.781Z,1005.36
2018-05-31T04:33:37.815Z,1005.42
2018-05-31T04:34:37.763Z,1005.37
2018-05-31T04:35:37.753Z,1005.37
2018-05-31T04:36:37.947Z,1005.39
2018-05-31T04:37:37.734Z,1005.43
2018-05-31T04:38:37.725Z,1005.38
2018-05-31T04:39:37.717Z,1005.41
2018-05-31T04:40:37.711Z,1005.41
2018-05-31T04:41:37.699Z,1005.44
2018-05-31T04:42:37.690Z,1005.43
2018-05-31T04:43:37.681Z,1005.46
2018-05-31T04:44:37.676Z,1005.43
2018-05-31T04:45:37.662Z,1005.47
2018-05-31T04:46:37.656Z,1005.48
2018-05-31T04:47:37.647Z,1005.53
2018-05-31T04:48:37.634Z,1005.57
2018-05-31T04:49:37.628Z,1005.56
2018-05-31T04:50:37.617Z,1005.58
2018-05-31T04:51:37.609Z,1005.61
2018-05-31T04:52:37.600Z,1005.62
2018-05-31T04:53:37.640Z,1005.63
2018-05-31T04:54:37.583Z,1005.63
2018-05-31T04:55:37.574Z,1005.68
2018-05-31T04:56:37.565Z,1005.72
2018-05-31T04:57:37.555Z,1005.71
2018-05-31T04:58:37.545Z,1005.75
2018-05-31T04:59:37.538Z,1005.8
2018-05-31T05:00:37.805Z,1005.83
2018-05-31T05:01:37.524Z,1005.87
2018-05-31T05:02:37.515Z,1005.88
2018-05-31T05:03:37.506Z,1005.9
2018-05-31T05:04:37.493Z,1005.91
2018-05-31T05:05:37.496Z,1005.88
2018-05-31T05:06:37.478Z,1005.89
2018-05-31T05:07:37.481Z,1005.85
2018-05-31T05:08:37.460Z,1005.8
2018-05-31T05:09:37.451Z,1005.82
2018-05-31T05:10:37.444Z,1005.8
2018-05-31T05:11:37.432Z,1005.8
2018-05-31T05:12:37.425Z,1005.79
2018-05-31T05:13:37.415Z,1005.82
2018-05-31T05:14:37.456Z,1005.78
2018-05-31T05:15:37.396Z,1005.8
2018-05-31T05:16:37.398Z,1005.78
2018-05-31T05:17:37.388Z,1005.82
2018-05-31T05:18:37.376Z,1005.82
2018-05-31T05:19:37.365Z,1005.81
2018-05-31T05:20:37.355Z,1005.79
2018-05-31T05:21:37.344Z,1005.82
2018-05-31T05:22:37.343Z,1005.82
2018-05-31T05:23:37.331Z,1005.83
2018-05-31T05:24:37.322Z,1005.82
2018-05-31T05:25:37.309Z,1005.88
2018-05-31T05:26:37.301Z,1005.87
2018-05-31T05:27:37.296Z,1005.88
2018-05-31T05:28:37.289Z,1005.89
2018-05-31T05:29:37.277Z,1005.89
2018-05-31T05:30:37.267Z,1005.88
2018-05-31T05:31:37.259Z,1005.92
2018-05-31T05:32:37.251Z,1005.88
2018-05-31T05:33:37.241Z,1005.87
2018-05-31T05:34:37.239Z,1005.87
2018-05-31T05:35:37.227Z,1005.9
2018-05-31T05:36:37.216Z,1005.93
2018-05-31T05:37:37.209Z,1005.99
2018-05-31T05:38:37.250Z,1005.96
2018-05-31T05:39:37.195Z,1005.96
2018-05-31T05:40:37.183Z,1005.97
2018-05-31T05:41:37.177Z,1005.92
2018-05-31T05:42:37.167Z,1005.96
2018-05-31T05:43:37.251Z,1005.93
2018-05-31T05:44:37.152Z,1005.92
2018-05-31T05:45:37.144Z,1005.9
2018-05-31T05:46:37.137Z,1005.89
2018-05-31T05:47:37.123Z,1005.89
2018-05-31T05:48:37.118Z,1005.89
2018-05-31T05:49:37.112Z,1005.93
2018-05-31T05:50:37.102Z,1005.87
2018-05-31T05:51:37.096Z,1005.85
2018-05-31T05:52:37.086Z,1005.91
2018-05-31T05:53:37.078Z,1005.86
2018-05-31T05:54:37.069Z,1005.83
2018-05-31T05:55:37.067Z,1005.81
2018-05-31T05:56:37.058Z,1005.82
2018-05-31T05:57:37.049Z,1005.83
2018-05-31T05:58:37.036Z,1005.84
2018-05-31T05:59:37.033Z,1005.86
2018-05-31T06:00:37.021Z,1005.88
2018-05-31T06:01:37.016Z,1005.81
2018-05-31T06:02:37.005Z,1005.82
2018-05-31T06:03:36.997Z,1005.84
2018-05-31T06:04:36.989Z,1005.81
2018-05-31T06:05:36.987Z,1005.83
2018-05-31T06:06:36.971Z,1005.83
2018-05-31T06:07:36.965Z,1005.86
2018-05-31T06:08:36.958Z,1005.85
2018-05-31T06:09:36.949Z,1005.84
2018-05-31T06:10:36.945Z,1005.87
2018-05-31T06:11:36.939Z,1005.88
2018-05-31T06:12:36.928Z,1005.87
2018-05-31T06:13:36.918Z,1005.97
2018-05-31T06:14:36.910Z,1005.96
2018-05-31T06:15:36.904Z,1005.98
2018-05-31T06:16:36.893Z,1005.98
2018-05-31T06:17:36.888Z,1005.91
2018-05-31T06:18:36.880Z,1005.92
2018-05-31T06:19:36.872Z,1005.89
2018-05-31T06:20:36.863Z,1005.87
2018-05-31T06:21:36.856Z,1005.88
2018-05-31T06:22:36.852Z,1005.88
2018-05-31T06:23:36.843Z,1005.87
2018-05-31T06:24:36.890Z,1005.91
2018-05-31T06:25:36.829Z,1005.93
2018-05-31T06:26:36.824Z,1005.92
2018-05-31T06:27:36.815Z,1005.97
2018-05-31T06:28:36.950Z,1005.94
2018-05-31T06:29:36.807Z,1005.94
2018-05-31T06:30:36.794Z,1005.9
2018-05-31T06:31:36.786Z,1005.92
2018-05-31T06:32:36.781Z,1005.9
2018-05-31T06:33:36.804Z,1005.9
2018-05-31T06:34:36.764Z,1005.87
2018-05-31T06:35:36.757Z,1005.87
2018-05-31T06:36:36.952Z,1005.9
2018-05-31T06:37:36.747Z,1005.92
2018-05-31T06:38:36.786Z,1005.9
2018-05-31T06:39:36.730Z,1005.95
2018-05-31T06:40:36.722Z,1005.94
2018-05-31T06:41:36.715Z,1005.97
2018-05-31T06:42:36.758Z,1005.99
2018-05-31T06:43:36.705Z,1005.99
2018-05-31T06:44:36.695Z,1006.04
2018-05-31T06:45:36.688Z,1006.01
2018-05-31T06:46:36.679Z,1006.13
2018-05-31T06:47:36.673Z,1006.16
2018-05-31T06:48:36.670Z,1006.18
2018-05-31T06:49:36.669Z,1006.18
2018-05-31T06:50:36.656Z,1006.16
2018-05-31T06:51:36.656Z,1006.15
2018-05-31T06:52:36.643Z,1006.15
2018-05-31T06:53:36.637Z,1006.09
2018-05-31T06:54:36.629Z,1006.08
2018-05-31T06:55:36.623Z,1006.06
2018-05-31T06:56:36.616Z,1006.07
2018-05-31T06:57:36.608Z,1006.04
2018-05-31T06:58:36.603Z,1006.05
2018-05-31T06:59:36.598Z,1006.06
2018-05-31T07:00:36.601Z,1006.09
2018-05-31T07:01:36.585Z,1006.11
2018-05-31T07:02:36.578Z,1006.12
2018-05-31T07:03:36.667Z,1006.09
2018-05-31T07:04:36.568Z,1006.12
2018-05-31T07:05:36.764Z,1006.14
2018-05-31T07:06:36.554Z,1006.11
2018-05-31T07:07:36.545Z,1006.1
2018-05-31T07:08:36.592Z,1006.08
2018-05-31T07:09:36.532Z,1006.13
2018-05-31T07:10:36.527Z,1006.17
2018-05-31T07:11:36.521Z,1006.16
2018-05-31T07:12:36.519Z,1006.18
2018-05-31T07:13:36.512Z,1006.19
2018-05-31T07:14:36.509Z,1006.21
2018-05-31T07:15:36.497Z,1006.26
2018-05-31T07:16:36.490Z,1006.26
2018-05-31T07:17:36.486Z,1006.22
2018-05-31T07:18:36.478Z,1006.25
2018-05-31T07:19:36.471Z,1006.25
2018-05-31T07:20:36.466Z,1006.26
2018-05-31T07:21:36.460Z,1006.22
2018-05-31T07:22:36.453Z,1006.24
2018-05-31T07:23:36.451Z,1006.26
2018-05-31T07:24:36.442Z,1006.3
2018-05-31T07:25:36.436Z,1006.38
2018-05-31T07:26:36.432Z,1006.47
2018-05-31T07:27:36.429Z,1006.5
2018-05-31T07:28:36.421Z,1006.51
2018-05-31T07:29:36.413Z,1006.54
2018-05-31T07:30:36.410Z,1006.53
2018-05-31T07:31:36.406Z,1006.58
2018-05-31T07:32:36.400Z,1006.62
2018-05-31T07:33:36.404Z,1006.63
2018-05-31T07:34:36.391Z,1006.63
2018-05-31T07:35:36.389Z,1006.66
2018-05-31T07:36:36.385Z,1006.66
2018-05-31T07:37:36.383Z,1006.66
2018-05-31T07:38:36.381Z,1006.67
2018-05-31T07:39:36.376Z,1006.68
2018-05-31T07:40:36.371Z,1006.67
2018-05-31T07:41:36.370Z,1006.59
2018-05-31T07:42:36.367Z,1006.56
2018-05-31T07:43:36.367Z,1006.54
2018-05-31T07:44:36.367Z,1006.52
2018-05-31T07:45:36.364Z,1006.61
2018-05-31T07:46:36.357Z,1006.5
2018-05-31T07:47:36.359Z,1006.49
2018-05-31T07:48:36.354Z,1006.44
2018-05-31T07:49:36.351Z,1006.51
2018-05-31T07:50:36.348Z,1006.62
2018-05-31T07:51:36.354Z,1006.45
2018-05-31T07:52:36.392Z,1006.39
2018-05-31T07:53:36.363Z,1006.38
2018-05-31T07:54:36.341Z,1006.39
2018-05-31T07:55:36.338Z,1006.37
2018-05-31T07:56:36.338Z,1006.43
2018-05-31T07:57:36.333Z,1006.48
2018-05-31T07:58:36.333Z,1006.48
2018-05-31T07:59:36.341Z,1006.5
2018-05-31T08:00:36.335Z,1006.48
2018-05-31T08:01:36.324Z,1006.6
2018-05-31T08:02:36.326Z,1006.62
2018-05-31T08:03:36.320Z,1006.45
2018-05-31T08:04:36.321Z,1006.42
2018-05-31T08:05:36.317Z,1006.52
2018-05-31T08:06:36.315Z,1006.55
2018-05-31T08:07:36.312Z,1006.43
2018-05-31T08:08:36.311Z,1006.45
2018-05-31T08:09:36.307Z,1006.46
2018-05-31T08:10:36.309Z,1006.41
2018-05-31T08:11:36.307Z,1006.47
2018-05-31T08:12:36.302Z,1006.43
2018-05-31T08:13:36.351Z,1006.4
2018-05-31T08:14:36.297Z,1006.37
2018-05-31T08:15:36.296Z,1006.34
2018-05-31T08:16:36.304Z,1006.41
2018-05-31T08:17:36.290Z,1006.49
2018-05-31T08:18:36.292Z,1006.55
2018-05-31T08:19:36.286Z,1006.49
2018-05-31T08:20:36.283Z,1006.54
2018-05-31T08:21:36.282Z,1006.52
2018-05-31T08:22:36.279Z,1006.59
2018-05-31T08:23:36.280Z,1006.66
2018-05-31T08:24:36.280Z,1006.43
2018-05-31T08:25:36.277Z,1006.41
2018-05-31T08:26:36.276Z,1006.45
2018-05-31T08:27:36.276Z,1006.39
2018-05-31T08:28:36.277Z,1006.45
2018-05-31T08:29:36.273Z,1006.41
2018-05-31T08:30:36.273Z,1006.36
2018-05-31T08:31:36.440Z,1006.36
2018-05-31T08:32:36.272Z,1006.36
2018-05-31T08:33:36.272Z,1006.35
2018-05-31T08:34:36.270Z,1006.34
2018-05-31T08:35:36.268Z,1006.43
2018-05-31T08:36:36.471Z,1006.43
2018-05-31T08:37:36.266Z,1006.49
2018-05-31T08:38:36.267Z,1006.5
2018-05-31T08:39:36.264Z,1006.6
2018-05-31T08:40:36.262Z,1006.61
2018-05-31T08:41:36.260Z,1006.65
2018-05-31T08:42:36.259Z,1006.55
2018-05-31T08:43:36.258Z,1006.51
2018-05-31T08:44:36.254Z,1006.46
2018-05-31T08:45:36.255Z,1006.48
2018-05-31T08:46:36.250Z,1006.46
2018-05-31T08:47:36.252Z,1006.47
2018-05-31T08:48:36.249Z,1006.45
2018-05-31T08:49:36.249Z,1006.49
2018-05-31T08:50:36.246Z,1006.5
2018-05-31T08:51:36.246Z,1006.49
2018-05-31T08:52:36.247Z,1006.51
2018-05-31T08:53:36.240Z,1006.47
2018-05-31T08:54:36.239Z,1006.46
2018-05-31T08:55:36.236Z,1006.49
2018-05-31T08:56:36.232Z,1006.48
2018-05-31T08:57:36.230Z,1006.48
2018-05-31T08:58:36.228Z,1006.49
2018-05-31T08:59:36.226Z,1006.49
2018-05-31T09:00:36.228Z,1006.45
2018-05-31T09:01:36.222Z,1006.5
2018-05-31T09:02:36.218Z,1006.53
2018-05-31T09:03:36.221Z,1006.53
2018-05-31T09:04:36.220Z,1006.52
2018-05-31T09:05:36.215Z,1006.58
2018-05-31T09:06:36.217Z,1006.66
2018-05-31T09:07:36.212Z,1006.6
2018-05-31T09:08:36.205Z,1006.71
2018-05-31T09:09:36.256Z,1006.71
2018-05-31T09:10:36.202Z,1006.99
2018-05-31T09:11:36.197Z,1006.82
2018-05-31T09:12:36.195Z,1006.84
2018-05-31T09:13:36.194Z,1006.93
2018-05-31T09:14:36.191Z,1006.87
2018-05-31T09:15:36.189Z,1006.8
2018-05-31T09:16:36.194Z,1006.77
2018-05-31T09:17:36.188Z,1006.74
2018-05-31T09:18:36.186Z,1006.69
2018-05-31T09:19:36.187Z,1006.73
2018-05-31T09:20:36.186Z,1006.68
2018-05-31T09:21:36.184Z,1006.66
2018-05-31T09:22:36.181Z,1006.64
2018-05-31T09:23:36.182Z,1006.65
2018-05-31T09:24:36.185Z,1006.62
2018-05-31T09:25:36.180Z,1006.59
2018-05-31T09:26:36.179Z,1006.59
2018-05-31T09:27:36.177Z,1006.55
2018-05-31T09:28:36.185Z,1006.52
2018-05-31T09:29:36.227Z,1006.53
2018-05-31T09:30:36.174Z,1006.49
2018-05-31T09:31:36.175Z,1006.52
2018-05-31T09:32:36.173Z,1006.49
2018-05-31T09:33:36.172Z,1006.5
2018-05-31T09:34:36.171Z,1006.47
2018-05-31T09:35:36.173Z,1006.57
2018-05-31T09:36:36.169Z,1006.6
2018-05-31T09:37:36.166Z,1006.51
2018-05-31T09:38:36.166Z,1006.47
2018-05-31T09:39:36.165Z,1006.43
2018-05-31T09:40:36.165Z,1006.47
2018-05-31T09:41:36.166Z,1006.5
2018-05-31T09:42:36.161Z,1006.5
2018-05-31T09:43:36.162Z,1006.51
2018-05-31T09:44:36.161Z,1006.5
2018-05-31T09:45:36.157Z,1006.53
2018-05-31T09:46:36.188Z,1006.57
2018-05-31T09:47:36.154Z,1006.57
2018-05-31T09:48:36.152Z,1006.57
2018-05-31T09:49:36.154Z,1006.52
2018-05-31T09:50:36.151Z,1006.53
2018-05-31T09:51:36.148Z,1006.5
2018-05-31T09:52:36.147Z,1006.5
2018-05-31T09:53:36.145Z,1006.51
2018-05-31T09:54:36.143Z,1006.46
2018-05-31T09:55:36.142Z,1006.49
2018-05-31T09:56:36.142Z,1006.48
2018-05-31T09:57:36.140Z,1006.49
2018-05-31T09:58:36.152Z,1006.49
2018-05-31T09:59:36.144Z,1006.48
2018-05-31T10:00:36.135Z,1006.52
2018-05-31T10:01:36.169Z,1006.52
2018-05-31T10:02:36.132Z,1006.5
2018-05-31T10:03:36.132Z,1006.53
2018-05-31T10:04:36.128Z,1006.53
2018-05-31T10:05:36.134Z,1006.53
2018-05-31T10:06:36.127Z,1006.54
2018-05-31T10:07:36.121Z,1006.59
2018-05-31T10:08:36.143Z,1006.59
2018-05-31T10:09:36.121Z,1006.57
2018-05-31T10:10:36.120Z,1006.61
2018-05-31T10:11:36.118Z,1006.6
2018-05-31T10:12:36.116Z,1006.57
2018-05-31T10:13:36.117Z,1006.51
2018-05-31T10:14:36.113Z,1006.59
2018-05-31T10:15:36.112Z,1006.57
2018-05-31T10:16:36.111Z,1006.68
2018-05-31T10:17:36.109Z,1006.64
2018-05-31T10:18:36.110Z,1006.59
2018-05-31T10:19:36.109Z,1006.82
2018-05-31T10:20:36.111Z,1006.82
2018-05-31T10:21:36.114Z,1006.87
2018-05-31T10:22:36.109Z,1006.83
2018-05-31T10:23:36.115Z,1006.85
2018-05-31T10:24:36.114Z,1006.8
2018-05-31T10:25:36.113Z,1006.81
2018-05-31T10:26:36.121Z,1006.77
2018-05-31T10:27:36.122Z,1006.76
2018-05-31T10:28:36.123Z,1006.75
2018-05-31T10:29:36.125Z,1006.74
2018-05-31T10:30:36.132Z,1006.7
2018-05-31T10:31:36.132Z,1006.71
2018-05-31T10:32:36.139Z,1006.68
2018-05-31T10:33:36.137Z,1006.65
2018-05-31T10:34:36.145Z,1006.64
2018-05-31T10:35:36.148Z,1006.59
2018-05-31T10:36:36.355Z,1006.55
2018-05-31T10:37:36.162Z,1006.56
2018-05-31T10:38:36.162Z,1006.55
2018-05-31T10:39:36.168Z,1006.44
2018-05-31T10:40:36.173Z,1006.51
2018-05-31T10:41:36.184Z,1006.44
2018-05-31T10:42:36.183Z,1006.37
2018-05-31T10:43:36.188Z,1006.36
2018-05-31T10:44:36.193Z,1006.37
2018-05-31T10:45:36.199Z,1006.34
2018-05-31T10:46:36.257Z,1006.31
2018-05-31T10:47:36.210Z,1006.32
2018-05-31T10:48:36.217Z,1006.27
2018-05-31T10:49:36.223Z,1006.26
2018-05-31T10:50:36.229Z,1006.29
2018-05-31T10:51:36.236Z,1006.29
2018-05-31T10:52:36.250Z,1006.28
2018-05-31T10:53:36.249Z,1006.24
2018-05-31T10:54:36.256Z,1006.19
2018-05-31T10:55:36.264Z,1006.21
2018-05-31T10:56:36.267Z,1006.17
2018-05-31T10:57:36.272Z,1006.16
2018-05-31T10:58:36.281Z,1006.13
2018-05-31T10:59:36.288Z,1006.08
2018-05-31T11:00:36.294Z,1006.07
2018-05-31T11:01:36.302Z,1006.06
2018-05-31T11:02:36.318Z,1006.07
2018-05-31T11:03:36.314Z,1006.05
2018-05-31T11:04:36.319Z,1006
2018-05-31T11:05:36.327Z,1006.03
2018-05-31T11:06:36.332Z,1006.1
2018-05-31T11:07:36.341Z,1006.08
2018-05-31T11:08:36.361Z,1006.11
2018-05-31T11:09:36.350Z,1006.1
2018-05-31T11:10:36.357Z,1006.12
2018-05-31T11:11:36.361Z,1006.07
2018-05-31T11:12:36.365Z,1006.07
2018-05-31T11:13:36.374Z,1006.07
2018-05-31T11:14:36.376Z,1006.06
2018-05-31T11:15:36.383Z,1006.06
2018-05-31T11:16:36.387Z,1006.05
2018-05-31T11:17:36.394Z,1006.01
2018-05-31T11:18:36.401Z,1005.96
2018-05-31T11:19:36.405Z,1005.99
2018-05-31T11:20:36.412Z,1006.03
2018-05-31T11:21:36.437Z,1005.97
2018-05-31T11:22:36.426Z,1006.01
2018-05-31T11:23:36.429Z,1006.01
2018-05-31T11:24:36.440Z,1006
2018-05-31T11:25:36.444Z,1006
2018-05-31T11:26:36.454Z,1005.96
2018-05-31T11:27:36.460Z,1006.01
2018-05-31T11:28:36.463Z,1005.96
2018-05-31T11:29:36.470Z,1006.01
2018-05-31T11:30:36.477Z,1005.91
2018-05-31T11:31:36.483Z,1005.87
2018-05-31T11:32:36.490Z,1005.87
2018-05-31T11:33:36.498Z,1005.83
2018-05-31T11:34:36.520Z,1005.81
2018-05-31T11:35:36.513Z,1005.82
2018-05-31T11:36:36.519Z,1005.82
2018-05-31T11:37:36.526Z,1005.84
2018-05-31T11:38:36.526Z,1005.76
2018-05-31T11:39:36.533Z,1005.81
2018-05-31T11:40:36.539Z,1005.86
2018-05-31T11:41:36.572Z,1005.94
2018-05-31T11:42:36.548Z,1005.94
2018-05-31T11:43:36.556Z,1005.89
2018-05-31T11:44:36.558Z,1005.88
2018-05-31T11:45:36.563Z,1005.88
2018-05-31T11:46:36.568Z,1005.92
2018-05-31T11:47:36.584Z,1005.91
2018-05-31T11:48:36.578Z,1005.83
2018-05-31T11:49:36.581Z,1005.81
2018-05-31T11:50:36.589Z,1005.91
2018-05-31T11:51:36.590Z,1005.89
2018-05-31T11:52:36.596Z,1005.85
2018-05-31T11:53:36.602Z,1005.78
2018-05-31T11:54:36.605Z,1005.77
2018-05-31T11:55:36.610Z,1005.74
2018-05-31T11:56:36.612Z,1005.77
2018-05-31T11:57:36.619Z,1005.81
2018-05-31T11:58:36.623Z,1005.84
2018-05-31T11:59:36.626Z,1005.84
2018-05-31T12:00:36.654Z,1005.82
2018-05-31T12:01:36.652Z,1005.83
2018-05-31T12:02:36.635Z,1005.86
2018-05-31T12:03:36.642Z,1005.87
2018-05-31T12:04:36.644Z,1005.85
2018-05-31T12:05:36.647Z,1005.82
2018-05-31T12:06:36.649Z,1005.84
2018-05-31T12:07:36.651Z,1005.78
2018-05-31T12:08:36.652Z,1005.83